Time;durP1;ratioP1;P1;durP2;ratioP2;P2;SDS_P1;SDS_P2;PMS_P1;PMS_P2;Temp;Humidity;BMP_temperature;BMP_pressure;BME280_temperature;BME280_humidity;BME280_pressure;Samples;Min_cycle;Max_cycle;Signal;HPM_P1;HPM_P2
2024/01/26 00:01:23;;;;;;;0.88;0.88;;;;;;;-0.92;98.83;100986.13;5045461;28;20025;-66
2024/01/26 00:03:51;;;;;;;1.38;1.27;;;;;;;-1.00;99.21;100976.47;5027330;28;20036;-65
2024/01/26 00:06:16;;;;;;;5.45;1.77;;;;;;;-1.00;99.10;100975.56;5045247;28;20029;-66
2024/01/26 00:08:41;;;;;;;0.70;0.70;;;;;;;-1.02;99.48;100980.59;5045224;28;20104;-66
2024/01/26 00:11:14;;;;;;;0.85;0.85;;;;;;;-1.01;99.89;100982.34;5027282;28;20018;-66
2024/01/26 00:13:39;;;;;;;1.73;1.45;;;;;;;-0.97;100.00;100990.13;5045204;28;20033;-66
2024/01/26 00:16:04;;;;;;;0.88;0.88;;;;;;;-0.93;100.00;101000.59;5044925;28;20025;-67
2024/01/26 00:18:30;;;;;;;0.88;0.88;;;;;;;-0.88;100.00;100993.16;5044881;28;20025;-67
2024/01/26 00:20:55;;;;;;;1.13;1.13;;;;;;;-0.79;100.00;100991.03;5044964;28;20100;-66
2024/01/26 00:23:20;;;;;;;1.00;0.95;;;;;;;-0.74;100.00;100981.06;5051542;23;20074;-61
2024/01/26 00:28:55;;;;;;;1.38;1.35;;;;;;;-0.58;100.00;100975.00;5004808;28;20111;-61
2024/01/26 00:31:21;;;;;;;1.75;1.35;;;;;;;-0.59;100.00;100965.59;5044717;23;20082;-62
2024/01/26 00:33:47;;;;;;;2.08;1.92;;;;;;;-0.61;100.00;100974.84;5050963;23;20048;-65
2024/01/26 00:36:13;;;;;;;0.57;0.57;;;;;;;-0.59;100.00;100964.72;5056832;23;20053;-61
2024/01/26 00:38:39;;;;;;;2.22;1.83;;;;;;;-0.67;100.00;100951.63;5046676;28;20025;-62
2024/01/26 00:41:05;;;;;;;2.38;2.20;;;;;;;-0.66;100.00;100951.69;5064506;28;20020;-62
2024/01/26 00:43:30;;;;;;;0.95;0.93;;;;;;;-0.56;100.00;100952.13;5064749;28;20028;-62
2024/01/26 00:45:55;;;;;;;0.88;0.85;;;;;;;-0.68;99.98;100958.38;5064916;28;20021;-62
2024/01/26 00:48:21;;;;;;;0.60;0.60;;;;;;;-0.76;100.00;100963.13;5064462;28;20067;-62
2024/01/26 00:50:49;;;;;;;1.50;1.20;;;;;;;-0.78;100.00;100962.19;5064823;28;20108;-62
2024/01/26 00:53:15;;;;;;;0.73;0.73;;;;;;;-0.70;100.00;100949.78;5064823;28;20032;-62
2024/01/26 00:55:41;;;;;;;0.70;0.70;;;;;;;-0.79;99.65;100941.72;5076234;23;20079;-62
2024/01/26 00:58:06;;;;;;;0.73;0.73;;;;;;;-0.89;99.89;100941.28;5036544;23;20049;-66
2024/01/26 01:00:31;;;;;;;0.70;0.70;;;;;;;-0.89;100.00;100935.31;5026632;28;20108;-66
2024/01/26 01:02:58;;;;;;;2.08;1.98;;;;;;;-0.91;100.00;100940.31;5044341;28;20505;-66
2024/01/26 01:05:24;;;;;;;0.80;0.80;;;;;;;-0.97;100.00;100932.38;5044454;28;20029;-66
2024/01/26 01:07:50;;;;;;;0.80;0.80;;;;;;;-0.88;100.00;100942.16;5026723;28;20033;-66
2024/01/26 01:10:16;;;;;;;0.85;0.82;;;;;;;-0.82;100.00;100932.25;5044598;28;20021;-66
2024/01/26 01:12:42;;;;;;;0.63;0.63;;;;;;;-0.80;100.00;100930.63;5044394;28;20412;-66
2024/01/26 01:15:11;;;;;;;0.95;0.95;;;;;;;-0.87;100.00;100918.41;5026612;28;20025;-66
2024/01/26 01:17:44;;;;;;;2.25;1.85;;;;;;;-0.80;100.00;100940.81;5045971;28;20029;-66
2024/01/26 01:20:11;;;;;;;6.00;0.93;;;;;;;-0.73;100.00;100931.78;5030299;28;20048;-66
2024/01/26 01:22:41;;;;;;;0.55;0.55;;;;;;;-0.65;100.00;100927.94;5048033;28;20028;-66
2024/01/26 01:25:08;;;;;;;0.65;0.65;;;;;;;-0.64;100.00;100926.25;5030320;28;20100;-66
2024/01/26 01:27:36;;;;;;;1.52;1.42;;;;;;;-0.59;100.00;100927.31;5043300;23;20053;-62
2024/01/26 01:30:04;;;;;;;5.25;1.45;;;;;;;-0.58;100.00;100916.34;5048227;28;20033;-61
2024/01/26 01:32:30;;;;;;;0.73;0.73;;;;;;;-0.64;100.00;100908.41;5046459;28;20022;-62
2024/01/26 01:34:55;;;;;;;3.53;3.33;;;;;;;-0.56;100.00;100914.72;5047923;28;20033;-63
2024/01/26 01:37:21;;;;;;;2.35;2.15;;;;;;;-0.64;100.00;100911.81;5048407;28;20060;-61
2024/01/26 01:39:47;;;;;;;0.60;0.60;;;;;;;-0.60;100.00;100920.47;5048090;28;20377;-62
2024/01/26 01:42:13;;;;;;;1.63;1.52;;;;;;;-0.60;100.00;100920.47;5048038;28;20049;-62
2024/01/26 01:44:40;;;;;;;18.98;3.28;;;;;;;-0.59;100.00;100912.03;5047620;28;20031;-61
2024/01/26 01:47:06;;;;;;;0.70;0.70;;;;;;;-0.50;100.00;100911.56;5047732;28;20021;-65
2024/01/26 01:49:32;;;;;;;0.50;0.50;;;;;;;-0.42;100.00;100907.69;5046770;28;20018;-61
2024/01/26 01:51:59;;;;;;;1.20;1.13;;;;;;;-0.42;100.00;100891.50;5046090;28;20034;-62
2024/01/26 01:54:26;;;;;;;1.40;1.30;;;;;;;-0.41;100.00;100893.25;5047878;28;20123;-61
2024/01/26 01:56:53;;;;;;;1.33;1.25;;;;;;;-0.42;100.00;100887.28;5047798;28;20030;-61
2024/01/26 01:59:20;;;;;;;1.73;1.63;;;;;;;-0.53;100.00;100863.81;5047389;28;20021;-60
2024/01/26 02:01:46;;;;;;;4.32;2.10;;;;;;;-0.42;100.00;100886.41;5047664;28;20081;-60
2024/01/26 02:04:11;;;;;;;1.52;1.42;;;;;;;-0.46;100.00;100880.28;5047258;28;20028;-61
2024/01/26 02:06:36;;;;;;;1.67;1.58;;;;;;;-0.34;100.00;100874.00;5047599;28;20409;-60
2024/01/26 02:09:02;;;;;;;0.50;0.50;;;;;;;-0.34;100.00;100857.00;5047587;28;20041;-60
2024/01/26 02:11:27;;;;;;;0.88;0.88;;;;;;;-0.31;100.00;100858.81;5046054;28;20018;-61
2024/01/26 02:13:53;;;;;;;1.45;1.35;;;;;;;-0.32;100.00;100855.38;5047598;28;20057;-61
2024/01/26 02:16:18;;;;;;;0.63;0.63;;;;;;;-0.30;100.00;100846.13;5047213;28;20030;-62
2024/01/26 02:18:43;;;;;;;0.98;0.98;;;;;;;-0.41;100.00;100832.00;5054225;23;20077;-66
2024/01/26 02:21:09;;;;;;;0.50;0.50;;;;;;;-0.33;100.00;100842.56;5073582;23;20072;-60
2024/01/26 02:23:34;;;;;;;1.02;1.00;;;;;;;-0.33;100.00;100828.13;5072939;23;20049;-67
2024/01/26 02:25:59;;;;;;;0.50;0.50;;;;;;;-0.32;100.00;100817.09;5067002;28;20428;-67
2024/01/26 02:28:25;;;;;;;0.50;0.50;;;;;;;-0.14;100.00;100817.03;5066940;28;20103;-68
2024/01/26 02:30:50;;;;;;;0.50;0.50;;;;;;;-0.12;100.00;100789.00;5067339;28;20029;-67
2024/01/26 02:33:15;;;;;;;1.38;1.25;;;;;;;-0.17;100.00;100795.59;5066921;28;20484;-68
2024/01/26 02:35:41;;;;;;;1.02;1.02;;;;;;;-0.18;100.00;100798.97;5072814;23;20045;-61
2024/01/26 02:38:06;;;;;;;0.50;0.50;;;;;;;-0.23;100.00;100780.91;5073695;23;20049;-71
2024/01/26 02:40:32;;;;;;;0.50;0.50;;;;;;;-0.14;100.00;100777.84;5048850;28;20394;-69
2024/01/26 02:42:58;;;;;;;0.77;0.77;;;;;;;-0.17;100.00;100781.16;5076196;23;20067;-60
2024/01/26 02:45:25;;;;;;;0.50;0.50;;;;;;;-0.02;100.00;100762.19;5048682;23;20485;-61
2024/01/26 02:47:50;;;;;;;0.50;0.50;;;;;;;0.16;100.00;100761.19;5072831;23;20033;-69
2024/01/26 02:50:15;;;;;;;1.35;1.25;;;;;;;0.01;100.00;100766.53;5066470;28;20067;-67
2024/01/26 02:52:41;;;;;;;0.50;0.50;;;;;;;-0.03;100.00;100770.63;5066700;28;20020;-67
2024/01/26 02:55:06;;;;;;;0.50;0.50;;;;;;;-0.10;100.00;100771.22;5066299;28;20409;-66
2024/01/26 02:57:31;;;;;;;0.63;0.63;;;;;;;-0.14;100.00;100765.09;5066678;28;20021;-66
2024/01/26 02:59:57;;;;;;;42.13;1.88;;;;;;;-0.08;100.00;100770.44;5066545;28;20048;-67
2024/01/26 03:02:22;;;;;;;3.33;0.77;;;;;;;-0.05;100.00;100775.69;5066300;28;20389;-69
2024/01/26 03:04:47;;;;;;;0.88;0.88;;;;;;;-0.04;100.00;100774.91;5066532;28;20028;-68
2024/01/26 03:07:13;;;;;;;2.30;2.10;;;;;;;0.02;100.00;100768.31;5048373;28;20116;-69
2024/01/26 03:09:38;;;;;;;0.90;0.55;;;;;;;0.06;100.00;100765.94;5066156;28;20024;-69
2024/01/26 03:12:04;;;;;;;5.57;1.08;;;;;;;0.12;100.00;100762.75;5066396;28;20023;-68
2024/01/26 03:14:29;;;;;;;0.50;0.50;;;;;;;0.11;100.00;100749.09;5066149;28;20029;-67
2024/01/26 03:16:54;;;;;;;0.43;0.43;;;;;;;0.15;100.00;100751.78;5048206;28;20017;-68
2024/01/26 03:19:20;;;;;;;0.50;0.50;;;;;;;0.20;100.00;100755.38;5048080;28;20040;-68
2024/01/26 03:21:46;;;;;;;0.65;0.65;;;;;;;0.23;100.00;100752.94;5066052;28;20017;-75
2024/01/26 03:24:11;;;;;;;1.00;0.75;;;;;;;0.17;100.00;100738.28;5066149;28;20055;-74
2024/01/26 03:26:37;;;;;;;0.50;0.50;;;;;;;0.28;100.00;100740.34;5065932;28;20036;-72
2024/01/26 03:29:04;;;;;;;0.75;0.75;;;;;;;0.24;100.00;100747.91;5047948;28;20473;-73
2024/01/26 03:31:29;;;;;;;0.55;0.55;;;;;;;0.21;100.00;100736.69;5048129;28;20021;-71
2024/01/26 03:33:55;;;;;;;0.40;0.40;;;;;;;0.18;100.00;100727.25;5065780;28;20378;-71
2024/01/26 03:36:20;;;;;;;0.50;0.50;;;;;;;0.19;100.00;100730.66;5065847;28;20027;-71
2024/01/26 03:38:46;;;;;;;0.50;0.50;;;;;;;0.35;100.00;100729.59;5047817;28;20075;-71
2024/01/26 03:41:11;;;;;;;0.50;0.50;;;;;;;0.17;100.00;100739.94;5065144;28;20043;-70
2024/01/26 03:43:36;;;;;;;0.85;0.85;;;;;;;0.18;100.00;100740.00;5065717;28;20040;-71
2024/01/26 03:46:03;;;;;;;0.50;0.50;;;;;;;0.23;100.00;100732.53;5065513;28;20032;-71
2024/01/26 03:48:28;;;;;;;1.75;0.95;;;;;;;0.21;100.00;100726.47;5065163;28;20052;-71
2024/01/26 03:50:54;;;;;;;1.05;1.02;;;;;;;0.18;100.00;100739.13;5065595;28;20021;-71
2024/01/26 03:53:19;;;;;;;1.92;1.83;;;;;;;0.17;100.00;100720.41;5065338;28;20033;-71
2024/01/26 03:55:44;;;;;;;0.47;0.47;;;;;;;0.32;100.00;100716.69;5047509;28;20085;-71
2024/01/26 03:58:10;;;;;;;1.83;1.73;;;;;;;0.34;100.00;100717.59;5047512;28;20028;-72
2024/01/26 04:00:35;;;;;;;0.70;0.70;;;;;;;0.33;100.00;100710.78;5065269;28;20385;-72
2024/01/26 04:03:01;;;;;;;0.50;0.50;;;;;;;0.31;100.00;100689.41;5047271;28;20025;-71
2024/01/26 04:05:26;;;;;;;2.22;0.80;;;;;;;0.30;100.00;100677.44;5047184;28;20457;-72
2024/01/26 04:07:52;;;;;;;0.50;0.50;;;;;;;0.40;100.00;100661.66;5047379;28;20028;-72
2024/01/26 04:10:17;;;;;;;0.60;0.60;;;;;;;0.43;100.00;100648.13;5047268;28;20028;-72
2024/01/26 04:12:42;;;;;;;0.77;0.77;;;;;;;0.35;100.00;100623.16;5065250;28;20358;-71
2024/01/26 04:15:08;;;;;;;3.92;1.58;;;;;;;0.54;100.00;100630.66;5064816;28;20021;-71
2024/01/26 04:17:33;;;;;;;1.08;1.05;;;;;;;0.37;100.00;100628.31;5064887;28;20191;-71
2024/01/26 04:19:58;;;;;;;0.60;0.60;;;;;;;0.55;100.00;100625.59;5047237;28;20132;-71
2024/01/26 04:22:24;;;;;;;1.15;0.70;;;;;;;0.58;100.00;100605.25;5064941;28;20041;-71
2024/01/26 04:24:49;;;;;;;1.20;0.85;;;;;;;0.49;100.00;100597.25;5064879;28;20077;-70
2024/01/26 04:27:14;;;;;;;0.50;0.50;;;;;;;0.65;100.00;100598.69;5064887;28;20032;-70
2024/01/26 04:29:40;;;;;;;1.40;1.30;;;;;;;0.70;100.00;100594.59;5064844;28;20151;-71
2024/01/26 04:32:05;;;;;;;0.80;0.80;;;;;;;0.72;100.00;100582.75;5064992;28;20039;-71
2024/01/26 04:34:31;;;;;;;0.43;0.43;;;;;;;0.81;100.00;100589.00;5064829;28;20021;-71
2024/01/26 04:36:57;;;;;;;1.27;1.13;;;;;;;0.76;100.00;100588.84;5064925;28;20060;-71
2024/01/26 04:39:22;;;;;;;0.50;0.50;;;;;;;0.81;100.00;100586.44;5064857;28;20075;-71
2024/01/26 04:41:47;;;;;;;0.55;0.55;;;;;;;0.89;100.00;100579.03;5064592;28;20027;-71
2024/01/26 04:44:13;;;;;;;0.60;0.60;;;;;;;0.84;100.00;100578.88;5046788;28;20029;-72
2024/01/26 04:46:38;;;;;;;0.50;0.50;;;;;;;0.94;100.00;100580.91;5064651;28;20029;-71
2024/01/26 04:49:04;;;;;;;0.43;0.43;;;;;;;0.72;100.00;100559.75;5064448;28;20040;-71
2024/01/26 04:51:29;;;;;;;0.63;0.63;;;;;;;0.73;100.00;100574.28;5064809;28;20119;-72
2024/01/26 04:53:54;;;;;;;0.50;0.50;;;;;;;0.70;100.00;100575.84;5068822;28;20028;-71
2024/01/26 04:56:21;;;;;;;0.57;0.57;;;;;;;0.74;100.00;100570.91;5068645;28;20075;-72
2024/01/26 04:58:47;;;;;;;0.65;0.65;;;;;;;0.97;100.00;100562.25;5068807;28;20020;-72
2024/01/26 05:01:12;;;;;;;3.90;0.70;;;;;;;0.93;100.00;100545.94;5068706;28;20028;-72
2024/01/26 05:03:37;;;;;;;0.65;0.65;;;;;;;1.10;100.00;100543.94;5065642;28;20048;-72
2024/01/26 05:06:04;;;;;;;1.25;1.10;;;;;;;0.91;100.00;100528.84;5067733;28;20029;-71
2024/01/26 05:08:29;;;;;;;0.50;0.50;;;;;;;1.11;100.00;100532.03;5050209;28;20028;-72
2024/01/26 05:10:54;;;;;;;0.50;0.50;;;;;;;1.00;100.00;100539.34;5068121;28;20013;-72
2024/01/26 05:13:20;;;;;;;0.80;0.80;;;;;;;1.06;100.00;100520.78;5067939;28;20100;-72
2024/01/26 05:15:45;;;;;;;7.82;1.23;;;;;;;1.10;100.00;100510.69;5049532;28;20017;-72
2024/01/26 05:18:10;;;;;;;0.98;0.95;;;;;;;1.08;100.00;100485.91;5067867;28;20120;-72
2024/01/26 05:20:36;;;;;;;8.27;2.15;;;;;;;1.09;100.00;100491.06;5050649;28;20449;-72
2024/01/26 05:25:30;;;;;;;0.63;0.63;;;;;;;0.95;100.00;100497.41;5067497;23;20049;-71
2024/01/26 05:27:55;;;;;;;0.50;0.50;;;;;;;1.16;100.00;100471.69;5075047;23;20055;-62
2024/01/26 05:30:22;;;;;;;1.65;1.27;;;;;;;1.16;100.00;100455.47;5068043;28;20407;-62
2024/01/26 05:32:47;;;;;;;0.40;0.40;;;;;;;1.20;100.00;100452.16;5074405;23;20566;-72
2024/01/26 05:35:13;;;;;;;1.30;1.20;;;;;;;1.12;100.00;100451.94;5085856;22;20070;-71
2024/01/26 05:37:38;;;;;;;0.93;0.93;;;;;;;1.20;100.00;100435.13;5073300;23;20041;-62
2024/01/26 05:40:08;;;;;;;0.80;0.80;;;;;;;1.19;100.00;100424.84;5068185;28;20021;-62
2024/01/26 05:42:33;;;;;;;0.52;0.52;;;;;;;1.26;100.00;100423.38;5068064;28;20021;-62
2024/01/26 05:44:58;;;;;;;1.80;1.38;;;;;;;1.21;100.00;100416.44;5067817;28;20017;-62
2024/01/26 05:47:24;;;;;;;0.63;0.63;;;;;;;1.15;100.00;100397.47;5067898;28;20025;-62
2024/01/26 05:49:50;;;;;;;0.90;0.90;;;;;;;1.48;100.00;100378.81;5068321;28;20029;-62
2024/01/26 05:52:16;;;;;;;0.52;0.52;;;;;;;1.33;100.00;100397.13;5073870;22;20318;-67
2024/01/26 05:54:41;;;;;;;0.68;0.68;;;;;;;1.35;100.00;100398.06;5067634;28;20450;-66
2024/01/26 05:57:07;;;;;;;12.65;1.33;;;;;;;1.34;100.00;100386.09;5064929;23;20053;-61
2024/01/26 05:59:32;;;;;;;0.65;0.63;;;;;;;1.38;100.00;100382.78;5080689;23;20036;-73
2024/01/26 06:01:57;;;;;;;1.02;0.93;;;;;;;1.40;100.00;100365.81;5047357;28;20370;-74
2024/01/26 06:04:23;;;;;;;0.50;0.50;;;;;;;1.42;100.00;100361.56;5047037;28;20021;-72
2024/01/26 06:06:48;;;;;;;0.50;0.50;;;;;;;1.48;100.00;100354.09;5047603;28;20029;-71
2024/01/26 06:09:15;;;;;;;0.40;0.40;;;;;;;1.34;100.00;100358.81;5047585;28;20032;-75
2024/01/26 06:11:42;;;;;;;0.70;0.70;;;;;;;1.48;100.00;100355.78;5058076;23;20037;-62
2024/01/26 06:14:08;;;;;;;0.50;0.50;;;;;;;1.39;100.00;100355.53;5067459;28;20029;-63
2024/01/26 06:16:33;;;;;;;0.80;0.80;;;;;;;1.40;100.00;100334.22;5049591;28;20025;-62
2024/01/26 06:18:59;;;;;;;0.50;0.50;;;;;;;1.53;100.00;100340.56;5067188;28;20028;-62
2024/01/26 06:21:24;;;;;;;0.47;0.47;;;;;;;1.40;100.00;100321.44;5067294;28;20453;-62
2024/01/26 06:23:49;;;;;;;1.02;0.70;;;;;;;1.58;100.00;100326.22;5072467;23;20049;-74
2024/01/26 06:26:15;;;;;;;0.77;0.77;;;;;;;1.46;100.00;100321.59;5065592;28;20027;-77
2024/01/26 06:28:40;;;;;;;0.47;0.47;;;;;;;1.51;100.00;100324.28;5049408;28;20032;-72
2024/01/26 06:31:05;;;;;;;0.70;0.70;;;;;;;1.48;100.00;100312.28;5049150;28;20052;-75
2024/01/26 06:33:31;;;;;;;2.85;1.25;;;;;;;1.58;100.00;100305.72;5067010;28;20029;-74
2024/01/26 06:35:56;;;;;;;0.73;0.73;;;;;;;1.63;100.00;100295.63;5049095;28;20032;-74
2024/01/26 06:38:21;;;;;;;0.80;0.73;;;;;;;1.52;100.00;100303.00;5066982;28;20025;-73
2024/01/26 06:40:47;;;;;;;9.68;2.20;;;;;;;1.40;100.00;100286.50;5066950;28;20031;-72
2024/01/26 06:43:16;;;;;;;2.28;0.95;;;;;;;1.44;100.00;100278.06;5066196;28;20326;-70
2024/01/26 06:45:41;;;;;;;0.60;0.60;;;;;;;1.49;100.00;100270.50;5065655;28;20025;-70
2024/01/26 06:48:07;;;;;;;4.07;2.10;;;;;;;1.44;100.00;100260.16;5066476;28;20116;-72
2024/01/26 06:50:33;;;;;;;0.95;0.95;;;;;;;1.60;100.00;100258.88;5066930;28;20028;-71
2024/01/26 06:52:58;;;;;;;1.25;1.15;;;;;;;1.48;100.00;100243.22;5075920;23;20061;-62
2024/01/26 06:55:24;;;;;;;0.88;0.88;;;;;;;1.56;100.00;100256.19;5066539;28;20028;-63
2024/01/26 06:57:49;;;;;;;1.17;1.08;;;;;;;1.36;100.00;100242.06;5067095;28;20325;-62
2024/01/26 07:00:16;;;;;;;1.02;1.02;;;;;;;1.54;100.00;100248.47;5066440;28;20500;-62
2024/01/26 07:02:41;;;;;;;1.05;0.60;;;;;;;1.59;100.00;100240.91;5048548;28;20029;-64
2024/01/26 07:05:07;;;;;;;0.77;0.77;;;;;;;1.46;100.00;100230.38;5066529;28;20098;-63
2024/01/26 07:07:32;;;;;;;0.70;0.70;;;;;;;1.30;100.00;100228.22;5048680;28;20044;-62
2024/01/26 07:09:58;;;;;;;1.25;1.23;;;;;;;1.48;100.00;100215.94;5066637;28;20027;-63
2024/01/26 07:12:23;;;;;;;1.83;1.73;;;;;;;1.64;100.00;100203.53;5066488;28;20119;-62
2024/01/26 07:14:48;;;;;;;0.93;0.80;;;;;;;1.65;100.00;100192.44;5065467;28;20029;-63
2024/01/26 07:17:14;;;;;;;0.77;0.77;;;;;;;1.52;100.00;100187.88;5066388;28;20091;-63
2024/01/26 07:19:39;;;;;;;0.40;0.40;;;;;;;1.40;100.00;100180.72;5066272;28;20086;-62
2024/01/26 07:22:05;;;;;;;0.50;0.50;;;;;;;1.38;100.00;100180.69;5066278;28;20025;-63
2024/01/26 07:24:30;;;;;;;0.40;0.40;;;;;;;1.46;100.00;100158.75;5066639;28;20032;-62
2024/01/26 07:26:56;;;;;;;0.50;0.50;;;;;;;1.44;100.00;100167.19;5078534;22;20045;-63
2024/01/26 07:29:21;;;;;;;0.50;0.50;;;;;;;1.31;100.00;100154.09;5069888;23;20072;-69
2024/01/26 07:31:46;;;;;;;0.40;0.40;;;;;;;1.52;100.00;100141.81;5065950;28;20085;-69
2024/01/26 07:34:12;;;;;;;0.50;0.50;;;;;;;1.69;100.00;100137.09;5066028;28;20036;-70
2024/01/26 07:36:38;;;;;;;0.40;0.40;;;;;;;1.57;100.00;100117.19;5047753;28;20092;-69
2024/01/26 07:39:05;;;;;;;0.40;0.40;;;;;;;1.43;100.00;100112.63;5065948;28;20025;-68
2024/01/26 07:41:31;;;;;;;0.73;0.73;;;;;;;1.61;100.00;100103.66;5065951;28;20071;-69
2024/01/26 07:43:56;;;;;;;0.50;0.50;;;;;;;1.66;100.00;100094.38;5065614;28;20465;-69
2024/01/26 07:46:21;;;;;;;0.50;0.50;;;;;;;1.70;100.00;100091.06;5065787;28;20381;-69
2024/01/26 07:48:47;;;;;;;0.47;0.47;;;;;;;1.75;100.00;100080.94;5065594;28;20103;-69
2024/01/26 07:51:12;;;;;;;0.40;0.40;;;;;;;1.48;100.00;100085.47;5065740;28;20021;-69
2024/01/26 07:53:38;;;;;;;0.40;0.40;;;;;;;1.64;100.00;100059.34;5065620;28;20021;-69
2024/01/26 07:56:03;;;;;;;1.25;1.20;;;;;;;1.81;100.00;100052.91;5067715;23;20052;-63
2024/01/26 07:58:28;;;;;;;2.05;1.95;;;;;;;1.60;100.00;100048.16;5065838;28;20024;-64
2024/01/26 08:00:54;;;;;;;1.02;1.02;;;;;;;1.90;100.00;100030.91;5082674;23;20068;-64
2024/01/26 08:03:19;;;;;;;0.50;0.50;;;;;;;1.81;100.00;100027.31;5084795;28;20101;-62
2024/01/26 08:05:44;;;;;;;0.50;0.50;;;;;;;1.64;100.00;100029.50;5085375;28;20024;-63
2024/01/26 08:08:10;;;;;;;0.75;0.75;;;;;;;1.65;100.00;100013.31;5091222;22;20099;-63
2024/01/26 08:10:35;;;;;;;0.45;0.45;;;;;;;1.61;100.00;100009.81;5047506;28;20083;-63
2024/01/26 08:13:00;;;;;;;0.50;0.50;;;;;;;1.79;100.00;99999.97;5065266;28;20032;-64
2024/01/26 08:15:26;;;;;;;0.60;0.60;;;;;;;1.81;100.00;99983.78;5065272;28;20029;-64
2024/01/26 08:17:51;;;;;;;0.40;0.40;;;;;;;1.64;100.00;99982.56;5064894;28;20097;-63
2024/01/26 08:20:17;;;;;;;31.30;4.97;;;;;;;1.76;100.00;99956.38;5047379;28;20042;-64
2024/01/26 08:22:43;;;;;;;0.60;0.60;;;;;;;1.97;100.00;99973.84;5065165;28;20033;-63
2024/01/26 08:25:09;;;;;;;1.88;1.77;;;;;;;1.75;100.00;99970.00;5073446;23;20028;-65
2024/01/26 08:27:35;;;;;;;3.05;1.35;;;;;;;1.76;100.00;99969.19;5063367;28;20041;-65
2024/01/26 08:30:01;;;;;;;0.43;0.43;;;;;;;1.81;100.00;99934.28;5064443;28;20027;-65
2024/01/26 08:32:26;;;;;;;0.40;0.40;;;;;;;1.98;100.00;99919.28;5064825;28;20024;-67
2024/01/26 08:34:51;;;;;;;0.40;0.40;;;;;;;1.96;100.00;99903.88;5064761;28;20036;-66
2024/01/26 08:37:17;;;;;;;0.40;0.40;;;;;;;1.91;100.00;99900.38;5064942;28;20029;-66
2024/01/26 08:39:45;;;;;;;0.40;0.40;;;;;;;2.03;99.93;99875.81;5046975;28;20025;-66
2024/01/26 08:42:12;;;;;;;0.70;0.70;;;;;;;1.94;100.00;99873.94;5064675;28;20043;-65
2024/01/26 08:44:37;;;;;;;0.50;0.50;;;;;;;1.88;100.00;99874.72;5046750;28;20078;-66
2024/01/26 08:47:03;;;;;;;1.02;0.70;;;;;;;2.08;100.00;99856.25;5046878;28;20056;-65
2024/01/26 08:49:29;;;;;;;1.95;1.85;;;;;;;2.09;100.00;99858.00;5046642;28;20029;-65
2024/01/26 08:51:55;;;;;;;0.40;0.40;;;;;;;2.01;100.00;99844.19;5064650;28;20025;-66
2024/01/26 08:54:21;;;;;;;0.50;0.50;;;;;;;2.21;100.00;99839.41;5064678;28;20047;-65
2024/01/26 08:56:46;;;;;;;0.40;0.40;;;;;;;2.03;100.00;99825.44;5064562;28;20020;-67
2024/01/26 08:59:12;;;;;;;0.50;0.50;;;;;;;1.96;100.00;99833.88;5064657;28;20025;-66
2024/01/26 09:01:38;;;;;;;0.40;0.40;;;;;;;1.88;100.00;99825.19;5064798;28;20029;-68
2024/01/26 09:04:08;;;;;;;0.80;0.80;;;;;;;2.06;100.00;99828.06;5064426;28;20025;-68
2024/01/26 09:06:34;;;;;;;2.35;1.50;;;;;;;2.09;100.00;99811.91;5064655;28;20028;-67
2024/01/26 09:08:59;;;;;;;0.50;0.50;;;;;;;2.17;100.00;99809.47;5064768;28;20032;-68
2024/01/26 09:11:24;;;;;;;0.50;0.50;;;;;;;2.15;100.00;99793.22;5064459;28;20017;-67
2024/01/26 09:13:50;;;;;;;0.50;0.50;;;;;;;2.22;100.00;99788.22;5064443;28;20033;-67
2024/01/26 09:16:15;;;;;;;0.75;0.75;;;;;;;2.21;100.00;99789.06;5064504;28;20054;-68
2024/01/26 09:18:40;;;;;;;0.40;0.40;;;;;;;2.20;100.00;99774.53;5064141;28;20017;-67
2024/01/26 09:21:10;;;;;;;0.40;0.40;;;;;;;2.46;100.00;99750.16;5064419;28;20029;-68
2024/01/26 09:23:36;;;;;;;0.50;0.50;;;;;;;2.38;100.00;99747.44;5064489;28;20032;-67
2024/01/26 09:26:01;;;;;;;0.45;0.45;;;;;;;2.45;100.00;99738.16;5064160;28;20045;-66
2024/01/26 09:28:27;;;;;;;0.40;0.40;;;;;;;2.23;100.00;99712.25;5064515;28;20232;-66
2024/01/26 09:30:52;;;;;;;0.40;0.40;;;;;;;2.22;100.00;99713.09;5064410;28;20085;-67
2024/01/26 09:33:17;;;;;;;0.50;0.50;;;;;;;2.51;100.00;99712.63;5064166;28;20490;-66
2024/01/26 09:35:43;;;;;;;0.40;0.40;;;;;;;2.29;100.00;99701.22;5064334;28;20536;-66
2024/01/26 09:38:08;;;;;;;0.50;0.50;;;;;;;2.21;100.00;99694.28;5047303;28;20021;-66
2024/01/26 09:40:33;;;;;;;0.40;0.40;;;;;;;2.39;100.00;99705.63;5068084;28;20346;-67
2024/01/26 09:42:59;;;;;;;0.40;0.40;;;;;;;2.38;100.00;99675.72;5049996;28;20037;-66
2024/01/26 09:45:25;;;;;;;0.40;0.40;;;;;;;2.46;100.00;99684.38;5067887;28;20021;-66
2024/01/26 09:47:54;;;;;;;0.40;0.40;;;;;;;2.47;100.00;99670.75;5049615;28;20037;-66
2024/01/26 09:50:23;;;;;;;0.60;0.60;;;;;;;2.31;100.00;99648.31;5049959;28;20021;-66
2024/01/26 09:52:50;;;;;;;0.40;0.40;;;;;;;2.22;100.00;99647.34;5049677;28;20025;-66
2024/01/26 09:55:16;;;;;;;0.40;0.40;;;;;;;2.44;100.00;99627.16;5068177;28;20025;-66
2024/01/26 09:57:44;;;;;;;0.40;0.40;;;;;;;2.42;100.00;99622.81;5067773;28;20389;-66
2024/01/26 10:00:10;;;;;;;0.40;0.40;;;;;;;2.42;100.00;99610.88;5067586;28;20025;-66
2024/01/26 10:02:37;;;;;;;0.50;0.50;;;;;;;2.76;100.00;99609.53;5067444;28;20021;-67
2024/01/26 10:05:02;;;;;;;0.43;0.43;;;;;;;2.72;100.00;99601.81;5049458;28;20051;-66
2024/01/26 10:07:28;;;;;;;1.00;1.00;;;;;;;2.72;100.00;99590.69;5067531;28;20061;-67
2024/01/26 10:09:53;;;;;;;0.40;0.40;;;;;;;2.65;100.00;99592.31;5067581;28;20025;-66
2024/01/26 10:12:18;;;;;;;0.50;0.50;;;;;;;2.72;100.00;99571.06;5067539;28;20013;-67
2024/01/26 10:14:44;;;;;;;0.50;0.50;;;;;;;2.83;100.00;99557.47;5067277;28;20047;-67
2024/01/26 10:17:17;;;;;;;0.50;0.50;;;;;;;2.94;100.00;99540.50;5049210;28;20017;-66
2024/01/26 10:19:42;;;;;;;0.65;0.65;;;;;;;2.58;100.00;99541.88;5049322;28;20017;-66
2024/01/26 10:22:08;;;;;;;0.40;0.40;;;;;;;2.95;100.00;99503.78;5067093;28;20044;-66
2024/01/26 10:24:33;;;;;;;0.40;0.40;;;;;;;3.10;100.00;99517.53;5067527;28;20029;-66
2024/01/26 10:26:59;;;;;;;0.47;0.47;;;;;;;2.76;100.00;99513.00;5049058;28;20076;-65
2024/01/26 10:29:24;;;;;;;0.40;0.40;;;;;;;3.05;100.00;99508.97;5067219;28;20033;-66
2024/01/26 10:31:50;;;;;;;0.40;0.40;;;;;;;2.91;100.00;99502.00;5067066;28;20468;-66
2024/01/26 10:34:17;;;;;;;0.40;0.40;;;;;;;3.18;100.00;99474.00;5049121;28;20506;-67
2024/01/26 10:36:47;;;;;;;0.40;0.40;;;;;;;3.05;100.00;99491.03;5067277;28;20025;-66
2024/01/26 10:39:23;;;;;;;0.40;0.40;;;;;;;3.13;100.00;99496.19;5067042;28;20024;-66
2024/01/26 10:41:52;;;;;;;0.40;0.40;;;;;;;3.09;100.00;99465.41;5066915;28;20048;-66
2024/01/26 10:44:19;;;;;;;0.40;0.40;;;;;;;3.12;100.00;99472.25;5066877;28;20093;-66
2024/01/26 10:46:45;;;;;;;0.40;0.40;;;;;;;3.00;100.00;99460.22;5048852;28;20024;-66
2024/01/26 10:49:12;;;;;;;0.40;0.40;;;;;;;3.14;100.00;99462.88;5065992;28;20024;-66
2024/01/26 10:51:38;;;;;;;0.40;0.40;;;;;;;3.18;100.00;99446.63;5066381;28;20021;-65
2024/01/26 10:54:09;;;;;;;0.50;0.50;;;;;;;2.95;100.00;99455.06;5066757;28;20063;-65
2024/01/26 10:56:34;;;;;;;0.40;0.40;;;;;;;2.91;100.00;99452.44;5066500;28;20021;-65
2024/01/26 10:59:00;;;;;;;0.43;0.43;;;;;;;2.96;100.00;99433.69;5066379;28;20035;-65
2024/01/26 11:01:26;;;;;;;0.40;0.40;;;;;;;2.87;100.00;99443.00;5048509;28;20036;-66
2024/01/26 11:03:55;;;;;;;0.40;0.40;;;;;;;2.92;100.00;99416.56;5066291;28;20099;-66
2024/01/26 11:06:20;;;;;;;0.40;0.40;;;;;;;2.93;100.00;99428.53;5066194;28;20123;-66
2024/01/26 11:08:46;;;;;;;0.40;0.40;;;;;;;2.88;100.00;99419.06;5066591;28;20029;-66
2024/01/26 11:11:15;;;;;;;0.40;0.40;;;;;;;2.90;100.00;99394.31;5066327;28;20418;-66
2024/01/26 11:13:40;;;;;;;0.40;0.40;;;;;;;2.89;100.00;99390.88;5066339;28;20029;-65
2024/01/26 11:16:07;;;;;;;0.40;0.40;;;;;;;2.93;100.00;99396.91;5066317;28;20500;-65
2024/01/26 11:18:37;;;;;;;1.30;1.20;;;;;;;3.03;100.00;99374.75;5064938;28;20057;-65
2024/01/26 11:21:03;;;;;;;0.40;0.40;;;;;;;2.96;100.00;99356.75;5066343;28;20048;-66
2024/01/26 11:23:39;;;;;;;0.40;0.40;;;;;;;3.13;100.00;99360.25;5048568;28;20025;-67
2024/01/26 11:26:13;;;;;;;0.40;0.40;;;;;;;2.95;100.00;99347.38;5047934;28;20049;-66